createdAt,value
2023-05-11T00:00:51.724Z,11.20
2023-05-11T00:03:56.085Z,11.37
2023-05-11T00:06:58.872Z,11.17
2023-05-11T00:10:01.441Z,10.97
2023-05-11T00:13:04.018Z,10.43
2023-05-11T00:16:06.960Z,10.47
2023-05-11T00:19:11.068Z,11.73
2023-05-11T00:22:13.662Z,12.07
2023-05-11T00:25:16.416Z,11.80
2023-05-11T00:28:18.994Z,11.13
2023-05-11T00:31:21.663Z,11.10
2023-05-11T00:34:25.608Z,11.20
2023-05-11T00:37:28.220Z,11.50
2023-05-11T00:40:32.886Z,10.27
2023-05-11T00:43:35.710Z,10.47
2023-05-11T00:46:38.869Z,10.73
2023-05-11T00:49:43.871Z,10.80
2023-05-11T00:52:46.722Z,10.77
2023-05-11T00:55:49.377Z,9.17
2023-05-11T00:58:52.890Z,9.33
2023-05-11T01:01:55.866Z,8.93
2023-05-11T01:05:00.529Z,9.17
2023-05-11T01:08:09.971Z,9.50
2023-05-11T01:11:18.744Z,9.50
2023-05-11T01:14:24.201Z,9.50
2023-05-11T01:17:35.293Z,10.00
2023-05-11T01:20:39.855Z,10.00
2023-05-11T01:23:52.467Z,8.90
2023-05-11T01:27:17.979Z,9.67
2023-05-11T01:30:28.933Z,9.10
2023-05-11T01:33:35.097Z,9.27
2023-05-11T01:36:43.769Z,9.10
2023-05-11T01:39:51.659Z,9.17
2023-05-11T01:43:01.229Z,8.90
2023-05-11T01:46:06.846Z,8.50
2023-05-11T01:49:11.199Z,7.40
2023-05-11T01:52:15.538Z,7.10
2023-05-11T01:55:20.597Z,7.90
2023-05-11T01:58:25.402Z,7.37
2023-05-11T02:01:30.880Z,8.07
2023-05-11T02:04:34.082Z,7.23
2023-05-11T02:07:39.419Z,7.20
2023-05-11T02:10:43.305Z,6.60
2023-05-11T02:13:47.841Z,6.67
2023-05-11T02:16:53.166Z,6.50
2023-05-11T02:19:57.272Z,6.90
2023-05-11T02:23:01.335Z,6.67
2023-05-11T02:26:04.688Z,6.63
2023-05-11T02:29:07.344Z,7.30
2023-05-11T02:32:21.419Z,7.17
2023-05-11T02:35:26.360Z,7.17
2023-05-11T02:38:33.382Z,7.33
2023-05-11T02:41:42.856Z,6.60
2023-05-11T02:44:54.337Z,7.03
2023-05-11T02:48:00.368Z,7.57
2023-05-11T02:51:04.704Z,8.00
2023-05-11T02:54:10.722Z,6.97
2023-05-11T02:57:14.184Z,8.07
2023-05-11T03:00:17.737Z,6.87
2023-05-11T03:03:22.197Z,7.60
2023-05-11T03:06:24.904Z,7.20
2023-05-11T03:09:27.639Z,6.87
2023-05-11T03:12:32.994Z,7.10
2023-05-11T03:15:36.590Z,7.63
2023-05-11T03:18:41.261Z,7.03
2023-05-11T03:21:44.404Z,7.10
2023-05-11T03:24:47.604Z,7.17
2023-05-11T03:27:52.229Z,7.30
2023-05-11T03:30:55.462Z,7.30
2023-05-11T03:33:59.713Z,7.20
2023-05-11T03:37:03.608Z,7.87
2023-05-11T03:40:09.028Z,8.53
2023-05-11T03:43:13.312Z,7.60
2023-05-11T03:46:20.345Z,8.70
2023-05-11T03:49:25.505Z,8.20
2023-05-11T03:52:28.404Z,8.47
2023-05-11T03:55:31.084Z,7.73
2023-05-11T03:58:33.787Z,8.07
2023-05-11T04:01:36.505Z,8.93
2023-05-11T04:04:40.705Z,8.40
2023-05-11T04:07:43.326Z,8.60
2023-05-11T04:10:45.985Z,8.20
2023-05-11T04:13:48.708Z,9.43
2023-05-11T04:16:51.300Z,8.77
2023-05-11T04:19:55.227Z,8.57
2023-05-11T04:22:57.856Z,9.27
2023-05-11T04:26:00.630Z,8.57
2023-05-11T04:29:03.777Z,8.80
2023-05-11T04:32:06.439Z,8.50
2023-05-11T04:35:10.885Z,8.67
2023-05-11T04:38:13.481Z,8.90
2023-05-11T04:41:16.334Z,8.93
2023-05-11T04:44:18.917Z,8.60
2023-05-11T04:47:21.510Z,9.00
2023-05-11T04:50:25.461Z,7.90
2023-05-11T04:53:28.218Z,8.83
2023-05-11T04:56:30.782Z,8.30
2023-05-11T04:59:34.646Z,7.73
2023-05-11T05:02:37.382Z,7.10
2023-05-11T05:05:41.386Z,8.30
2023-05-11T05:08:43.985Z,7.97
2023-05-11T05:11:46.598Z,9.00
2023-05-11T05:14:49.192Z,9.30
2023-05-11T05:17:51.871Z,8.87
2023-05-11T05:20:55.834Z,9.13
2023-05-11T05:23:58.390Z,8.70
2023-05-11T05:27:00.980Z,10.43
2023-05-11T05:30:03.645Z,9.93
2023-05-11T05:33:06.348Z,9.90
2023-05-11T05:36:10.527Z,9.60
2023-05-11T05:39:13.205Z,9.20
2023-05-11T05:42:15.860Z,9.77
2023-05-11T05:45:18.458Z,9.50
2023-05-11T05:48:21.079Z,9.80
2023-05-11T05:51:25.078Z,10.13
2023-05-11T05:54:27.701Z,16.40
2023-05-11T05:57:31.019Z,13.93
2023-05-11T06:00:33.696Z,14.30
2023-05-11T06:03:36.384Z,10.13
2023-05-11T06:06:40.461Z,10.30
2023-05-11T06:09:43.148Z,11.57
2023-05-11T06:12:45.752Z,13.77
2023-05-11T06:15:48.368Z,11.30
2023-05-11T06:18:51.209Z,20.03
2023-05-11T06:21:55.187Z,14.60
2023-05-11T06:24:57.999Z,11.93
2023-05-11T06:28:00.615Z,22.80
2023-05-11T06:31:03.763Z,12.60
2023-05-11T06:34:06.454Z,12.20
2023-05-11T06:37:10.414Z,11.60
2023-05-11T06:40:13.484Z,13.27
2023-05-11T06:43:16.064Z,13.63
2023-05-11T06:46:18.706Z,13.43
2023-05-11T06:49:22.408Z,14.10
2023-05-11T06:52:26.446Z,13.77
2023-05-11T06:55:29.023Z,14.10
2023-05-11T06:58:31.668Z,13.93
2023-05-11T07:01:34.401Z,14.37
2023-05-11T07:04:37.202Z,13.83
2023-05-11T07:07:41.944Z,13.63
2023-05-11T07:10:44.595Z,13.67
2023-05-11T07:13:47.230Z,12.60
2023-05-11T07:16:52.731Z,13.10
2023-05-11T07:19:55.538Z,13.13
2023-05-11T07:23:00.167Z,12.63
2023-05-11T07:26:08.750Z,13.40
2023-05-11T07:29:11.335Z,13.63
2023-05-11T07:32:14.050Z,13.00
2023-05-11T07:35:16.703Z,14.47
2023-05-11T07:38:20.681Z,12.73
2023-05-11T07:41:26.629Z,11.83
2023-05-11T07:44:29.269Z,12.83
2023-05-11T07:47:33.233Z,12.33
2023-05-11T07:50:37.021Z,14.37
2023-05-11T07:53:41.065Z,12.53
2023-05-11T07:56:43.678Z,10.67
2023-05-11T07:59:46.382Z,12.20
2023-05-11T08:02:49.183Z,11.30
2023-05-11T08:05:51.891Z,11.97
2023-05-11T08:08:55.847Z,11.27
2023-05-11T08:12:01.396Z,13.33
2023-05-11T08:15:04.543Z,16.60
2023-05-11T08:18:07.712Z,16.53
2023-05-11T08:21:10.445Z,9.80
2023-05-11T08:24:14.408Z,10.00
2023-05-11T08:27:17.202Z,9.30
2023-05-11T08:30:20.173Z,10.93
2023-05-11T08:33:36.459Z,9.13
2023-05-11T08:36:40.521Z,9.90
2023-05-11T08:39:47.673Z,9.27
2023-05-11T08:42:53.872Z,9.47
2023-05-11T08:46:01.543Z,14.50
2023-05-11T08:49:04.355Z,10.03
2023-05-11T08:52:07.913Z,9.80
2023-05-11T08:55:12.748Z,10.37
2023-05-11T08:58:19.359Z,10.90
2023-05-11T09:01:23.637Z,9.83
2023-05-11T09:04:27.148Z,8.70
2023-05-11T09:07:30.733Z,9.10
2023-05-11T09:10:34.937Z,9.87
2023-05-11T09:13:37.855Z,11.63
2023-05-11T09:16:41.292Z,10.40
2023-05-11T09:20:01.100Z,10.70
2023-05-11T09:23:03.794Z,11.47
2023-05-11T09:26:15.014Z,13.43
2023-05-11T09:29:20.707Z,10.67
2023-05-11T09:32:23.387Z,9.40
2023-05-11T09:35:28.659Z,9.13
2023-05-11T09:38:32.275Z,8.77
2023-05-11T09:41:36.567Z,8.30
2023-05-11T09:44:41.564Z,9.10
2023-05-11T09:47:44.235Z,10.23
2023-05-11T09:50:47.785Z,7.93
2023-05-11T09:53:50.403Z,8.20
2023-05-11T09:56:58.171Z,9.30
2023-05-11T10:00:01.223Z,9.47
2023-05-11T10:03:05.726Z,8.60
2023-05-11T10:06:08.968Z,10.77
2023-05-11T10:09:11.743Z,9.10
2023-05-11T10:12:15.844Z,8.57
2023-05-11T10:15:21.255Z,8.33
2023-05-11T10:18:24.264Z,8.50
2023-05-11T10:21:28.594Z,8.93
2023-05-11T10:24:33.640Z,8.13
2023-05-11T10:27:38.023Z,7.97
2023-05-11T10:30:42.619Z,9.10
2023-05-11T10:33:47.231Z,7.27
2023-05-11T10:36:53.311Z,8.87
2023-05-11T10:39:56.127Z,8.63
2023-05-11T10:43:19.851Z,8.77
2023-05-11T10:46:38.076Z,7.70
2023-05-11T10:50:02.880Z,8.67
2023-05-11T10:53:20.782Z,8.60
2023-05-11T10:56:47.679Z,9.17
2023-05-11T11:00:14.208Z,8.80
2023-05-11T11:03:17.079Z,9.93
2023-05-11T11:06:24.614Z,10.93
2023-05-11T11:09:27.350Z,12.50
2023-05-11T11:12:31.041Z,10.07
2023-05-11T11:16:16.170Z,10.33
2023-05-11T11:19:41.982Z,11.40
2023-05-11T11:22:47.063Z,18.03
2023-05-11T11:25:54.822Z,16.70
2023-05-11T11:29:11.569Z,13.07
2023-05-11T11:32:27.958Z,10.93
2023-05-11T11:35:48.643Z,10.50
2023-05-11T11:39:01.143Z,13.47
2023-05-11T11:42:04.571Z,10.60
2023-05-11T11:45:27.244Z,10.27
2023-05-11T11:48:32.398Z,9.83
2023-05-11T11:51:39.978Z,10.00
2023-05-11T11:54:44.829Z,10.77
2023-05-11T11:57:51.143Z,9.40
2023-05-11T12:00:54.102Z,16.27
2023-05-11T12:04:34.297Z,9.03
2023-05-11T12:07:42.904Z,8.80
2023-05-11T12:10:48.094Z,10.07
2023-05-11T12:13:50.960Z,10.60
2023-05-11T12:17:04.460Z,8.60
2023-05-11T12:20:15.119Z,8.00
2023-05-11T12:23:20.100Z,7.53
2023-05-11T12:26:23.952Z,8.30
2023-05-11T12:29:26.910Z,8.47
2023-05-11T12:32:30.644Z,8.43
2023-05-11T12:35:34.849Z,7.67
2023-05-11T12:38:45.681Z,8.57
2023-05-11T12:41:49.983Z,8.73
2023-05-11T12:44:52.971Z,9.23
2023-05-11T12:47:58.265Z,8.00
2023-05-11T12:51:00.895Z,8.40
2023-05-11T12:54:05.005Z,9.07
2023-05-11T12:57:09.391Z,8.67
2023-05-11T13:00:13.912Z,9.60
2023-05-11T13:03:22.858Z,9.13
2023-05-11T13:06:25.599Z,9.07
2023-05-11T13:09:29.530Z,9.10
2023-05-11T13:12:34.079Z,9.20
2023-05-11T13:15:51.237Z,10.10
2023-05-11T13:19:04.279Z,10.73
2023-05-11T13:22:08.130Z,9.87
2023-05-11T13:25:12.281Z,8.63
2023-05-11T13:28:15.662Z,8.40
2023-05-11T13:31:19.284Z,8.80
2023-05-11T13:34:22.078Z,9.43
2023-05-11T13:37:24.658Z,10.50
2023-05-11T13:40:28.847Z,8.77
2023-05-11T13:43:31.471Z,9.07
2023-05-11T13:46:34.170Z,9.40
2023-05-11T13:49:36.880Z,10.40
2023-05-11T13:52:40.325Z,8.73
2023-05-11T13:55:44.326Z,9.87
2023-05-11T13:58:46.920Z,8.30
2023-05-11T14:01:49.578Z,8.80
2023-05-11T14:04:52.295Z,9.57
2023-05-11T14:07:54.901Z,8.27
2023-05-11T14:10:58.829Z,8.10
2023-05-11T14:14:01.767Z,7.97
2023-05-11T14:17:04.475Z,8.43
2023-05-11T14:20:08.668Z,8.13
2023-05-11T14:23:11.245Z,9.03
2023-05-11T14:26:15.226Z,8.63
2023-05-11T14:29:17.786Z,9.73
2023-05-11T14:32:20.929Z,9.27
2023-05-11T14:35:23.695Z,9.73
2023-05-11T14:38:26.360Z,9.70
2023-05-11T14:41:30.358Z,9.70
2023-05-11T14:44:32.982Z,8.97
2023-05-11T14:47:35.888Z,9.07
2023-05-11T14:50:38.694Z,7.97
2023-05-11T14:53:41.397Z,8.53
2023-05-11T14:56:46.173Z,8.00
2023-05-11T14:59:59.096Z,7.87
2023-05-11T15:03:03.258Z,7.27
2023-05-11T15:06:06.427Z,9.20
2023-05-11T15:09:09.068Z,8.47
2023-05-11T15:12:13.093Z,8.83
2023-05-11T15:15:15.755Z,8.60
2023-05-11T15:18:18.565Z,7.53
2023-05-11T15:21:21.937Z,6.90
2023-05-11T15:24:24.524Z,8.17
2023-05-11T15:27:28.616Z,7.60
2023-05-11T15:30:32.708Z,7.37
2023-05-11T15:33:35.710Z,7.00
2023-05-11T15:36:38.328Z,8.30
2023-05-11T15:39:41.039Z,7.07
2023-05-11T15:42:44.986Z,8.47
2023-05-11T15:45:47.626Z,7.93
2023-05-11T15:48:50.267Z,9.43
2023-05-11T15:51:52.864Z,8.00
2023-05-11T15:54:55.444Z,8.13
2023-05-11T15:57:59.438Z,8.47
2023-05-11T16:01:02.094Z,9.07
2023-05-11T16:04:04.736Z,7.13
2023-05-11T16:07:07.345Z,9.17
2023-05-11T16:10:10.904Z,8.60
2023-05-11T16:13:14.886Z,7.17
2023-05-11T16:16:17.483Z,6.80
2023-05-11T16:19:20.125Z,6.53
2023-05-11T16:22:22.692Z,7.13
2023-05-11T16:25:25.296Z,6.37
2023-05-11T16:28:29.205Z,5.90
2023-05-11T16:31:31.822Z,6.03
2023-05-11T16:34:35.118Z,5.80
2023-05-11T16:37:37.901Z,5.33
2023-05-11T16:40:40.502Z,5.80
2023-05-11T16:43:46.039Z,5.47
2023-05-11T16:46:49.108Z,5.63
2023-05-11T16:49:51.851Z,5.57
2023-05-11T16:52:54.931Z,5.83
2023-05-11T16:55:58.024Z,4.90
2023-05-11T16:59:01.983Z,5.10
2023-05-11T17:02:06.777Z,4.70
2023-05-11T17:05:11.409Z,4.73
2023-05-11T17:08:14.052Z,4.87
2023-05-11T17:11:16.831Z,4.87
2023-05-11T17:14:20.890Z,5.67
2023-05-11T17:17:23.482Z,6.73
2023-05-11T17:20:26.642Z,5.60
2023-05-11T17:23:29.306Z,5.97
2023-05-11T17:26:43.400Z,7.40
2023-05-11T17:29:50.887Z,16.07
2023-05-11T17:32:53.667Z,6.50
2023-05-11T17:35:56.422Z,5.80
2023-05-11T17:38:59.006Z,9.87
2023-05-11T17:42:02.007Z,5.83
2023-05-11T17:45:07.112Z,7.63
2023-05-11T17:48:10.042Z,6.00
2023-05-11T17:51:12.692Z,6.03
2023-05-11T17:54:15.300Z,5.37
2023-05-11T17:57:17.918Z,5.00
2023-05-11T18:00:22.716Z,5.20
2023-05-11T18:03:25.391Z,5.03
2023-05-11T18:06:28.250Z,4.77
2023-05-11T18:09:30.926Z,5.73
2023-05-11T18:12:33.544Z,5.40
2023-05-11T18:15:37.814Z,4.60
2023-05-11T18:18:42.181Z,4.10
2023-05-11T18:21:44.862Z,4.23
2023-05-11T18:24:47.465Z,4.33
2023-05-11T18:27:50.468Z,4.20
2023-05-11T18:30:54.433Z,4.80
2023-05-11T18:33:57.110Z,4.60
2023-05-11T18:36:59.705Z,4.57
2023-05-11T18:40:06.182Z,4.53
2023-05-11T18:43:08.888Z,4.43
2023-05-11T18:46:12.848Z,4.93
2023-05-11T18:49:15.441Z,4.10
2023-05-11T18:52:18.138Z,4.30
2023-05-11T18:55:20.881Z,4.40
2023-05-11T18:58:23.601Z,4.57
2023-05-11T19:01:39.812Z,4.17
2023-05-11T19:04:49.495Z,3.97
2023-05-11T19:07:52.210Z,4.50
2023-05-11T19:10:54.828Z,4.50
2023-05-11T19:13:57.423Z,4.73
2023-05-11T19:17:01.529Z,4.03
2023-05-11T19:20:04.840Z,4.67
2023-05-11T19:23:07.441Z,4.90
2023-05-11T19:26:10.066Z,4.57
2023-05-11T19:29:16.814Z,5.07
2023-05-11T19:32:21.777Z,4.53
2023-05-11T19:35:24.607Z,4.30
2023-05-11T19:38:27.447Z,4.17
2023-05-11T19:41:30.027Z,4.87
2023-05-11T19:44:34.467Z,4.77
2023-05-11T19:47:38.711Z,4.50
2023-05-11T19:50:41.643Z,4.97
2023-05-11T19:53:44.675Z,5.07
2023-05-11T19:56:47.598Z,6.67
2023-05-11T19:59:50.217Z,5.07
2023-05-11T20:02:55.011Z,4.90
2023-05-11T20:05:57.704Z,6.90
2023-05-11T20:09:00.300Z,5.33
2023-05-11T20:12:03.269Z,5.30
2023-05-11T20:15:06.622Z,4.97
2023-05-11T20:18:10.609Z,7.13
2023-05-11T20:21:13.623Z,5.13
2023-05-11T20:24:16.215Z,4.77
2023-05-11T20:27:18.824Z,5.40
2023-05-11T20:30:21.495Z,4.60
2023-05-11T20:36:31.604Z,4.90
2023-05-11T20:39:34.493Z,4.57
2023-05-11T20:42:38.020Z,5.23
2023-05-11T20:45:40.644Z,5.00
2023-05-11T20:48:49.461Z,4.90
2023-05-11T20:51:54.649Z,4.77
2023-05-11T20:54:57.252Z,5.27
2023-05-11T20:57:59.879Z,5.20
2023-05-11T21:01:02.552Z,4.50
2023-05-11T21:04:06.787Z,4.77
2023-05-11T21:07:09.455Z,4.73
2023-05-11T21:10:13.242Z,5.00
2023-05-11T21:13:15.851Z,4.80
2023-05-11T21:16:18.793Z,4.33
2023-05-11T21:19:22.750Z,4.50
2023-05-11T21:22:25.330Z,4.20
2023-05-11T21:25:27.939Z,4.20
2023-05-11T21:28:32.556Z,4.40
2023-05-11T21:31:35.291Z,4.00
2023-05-11T21:34:39.300Z,4.10
2023-05-11T21:37:42.081Z,4.30
2023-05-11T21:40:44.800Z,3.87
2023-05-11T21:43:47.410Z,4.13
2023-05-11T21:46:50.444Z,4.00
2023-05-11T21:49:54.567Z,4.27
2023-05-11T21:52:57.161Z,4.00
2023-05-11T21:55:59.735Z,3.87
2023-05-11T21:59:02.324Z,3.80
2023-05-11T22:02:05.077Z,4.23
2023-05-11T22:05:10.306Z,3.90
2023-05-11T22:08:15.462Z,4.40
2023-05-11T22:11:19.420Z,4.30
2023-05-11T22:14:24.058Z,4.03
2023-05-11T22:17:26.711Z,4.23
2023-05-11T22:20:31.597Z,4.37
2023-05-11T22:23:35.277Z,4.07
2023-05-11T22:26:37.860Z,4.20
2023-05-11T22:29:40.478Z,4.50
2023-05-11T22:32:43.107Z,4.33
2023-05-11T22:35:47.240Z,4.40
2023-05-11T22:38:49.893Z,4.47
2023-05-11T22:41:52.511Z,3.90
2023-05-11T22:44:55.261Z,4.20
2023-05-11T22:47:57.986Z,3.80
2023-05-11T22:51:06.190Z,4.20
2023-05-11T22:54:08.866Z,4.60
2023-05-11T22:57:14.646Z,4.17
2023-05-11T23:00:17.907Z,4.47
2023-05-11T23:03:21.158Z,4.20
2023-05-11T23:06:25.340Z,4.53
2023-05-11T23:09:28.295Z,4.63
2023-05-11T23:12:30.912Z,4.43
2023-05-11T23:15:33.530Z,4.37
2023-05-11T23:18:36.292Z,4.07
2023-05-11T23:21:40.439Z,4.40
2023-05-11T23:24:43.020Z,4.60
2023-05-11T23:27:45.596Z,4.07
2023-05-11T23:30:48.172Z,4.13
2023-05-11T23:33:50.730Z,4.03
2023-05-11T23:36:54.793Z,4.30
2023-05-11T23:39:57.400Z,4.30
2023-05-11T23:42:59.980Z,4.10
2023-05-11T23:46:02.584Z,4.60
2023-05-11T23:49:05.323Z,4.20
2023-05-11T23:52:09.411Z,4.40
2023-05-11T23:55:12.612Z,4.17
2023-05-11T23:58:15.328Z,4.00
